Time;durP1;ratioP1;P1;durP2;ratioP2;P2;SDS_P1;SDS_P2;PMS_P1;PMS_P2;Temp;Humidity;BMP_temperature;BMP_pressure;BME280_temperature;BME280_humidity;BME280_pressure;Samples;Min_cycle;Max_cycle;Signal;HPM_P1;HPM_P2
2021/04/03 00:00:50;;;;;;;12.75;4.60;;;;;;;;;;5023138;28;20218;-81
2021/04/03 00:03:20;;;;;;;7.93;3.53;;;;;;;;;;5020148;28;20194;-78
2021/04/03 00:05:48;;;;;;;6.68;4.00;;;;;;;;;;5023493;28;20183;-79
2021/04/03 00:08:17;;;;;;;7.53;3.67;;;;;;;;;;5017851;28;20722;-79
2021/04/03 00:10:47;;;;;;;7.70;4.63;;;;;;;;;;5023206;28;20199;-79
2021/04/03 00:13:17;;;;;;;12.13;5.32;;;;;;;;;;5021754;28;20191;-79
2021/04/03 00:15:45;;;;;;;8.38;4.47;;;;;;;;;;5027910;28;20206;-78
2021/04/03 00:18:13;;;;;;;8.68;3.78;;;;;;;;;;5034383;28;20183;-78
2021/04/03 00:20:41;;;;;;;9.13;4.68;;;;;;;;;;5034368;28;20197;-79
2021/04/03 00:23:09;;;;;;;9.27;3.58;;;;;;;;;;5034320;28;20275;-80
2021/04/03 00:25:37;;;;;;;14.55;4.68;;;;;;;;;;5034148;28;20289;-79
2021/04/03 00:28:04;;;;;;;9.02;3.60;;;;;;;;;;5027968;28;20243;-79
2021/04/03 00:30:31;;;;;;;13.23;5.00;;;;;;;;;;5030191;28;20183;-80
2021/04/03 00:33:02;;;;;;;9.35;4.15;;;;;;;;;;5025434;28;20195;-79
2021/04/03 00:35:31;;;;;;;8.68;4.22;;;;;;;;;;5025749;28;20190;-80
2021/04/03 00:38:00;;;;;;;9.02;3.45;;;;;;;;;;5027587;28;20298;-80
2021/04/03 00:40:29;;;;;;;9.02;3.60;;;;;;;;;;5026644;28;20245;-80
2021/04/03 00:42:58;;;;;;;6.95;3.33;;;;;;;;;;5026206;28;20211;-80
2021/04/03 00:45:25;;;;;;;13.52;4.38;;;;;;;;;;5024149;28;20626;-80
2021/04/03 00:47:53;;;;;;;7.57;3.33;;;;;;;;;;5028130;28;20264;-80
2021/04/03 00:50:25;;;;;;;6.38;3.83;;;;;;;;;;5027584;28;20600;-80
2021/04/03 00:52:52;;;;;;;6.50;3.40;;;;;;;;;;5028803;28;20187;-80
2021/04/03 00:55:20;;;;;;;8.35;3.42;;;;;;;;;;5026835;28;20566;-81
2021/04/03 00:57:48;;;;;;;5.63;3.28;;;;;;;;;;5028771;28;20226;-80
2021/04/03 01:00:17;;;;;;;10.30;4.18;;;;;;;;;;5029153;28;20574;-81
2021/04/03 01:02:44;;;;;;;13.93;4.50;;;;;;;;;;5026595;28;20273;-80
2021/04/03 01:05:15;;;;;;;4.93;2.80;;;;;;;;;;5033197;28;20194;-80
2021/04/03 01:07:42;;;;;;;9.13;3.58;;;;;;;;;;5031256;28;20238;-80
2021/04/03 01:10:11;;;;;;;6.80;3.70;;;;;;;;;;5028192;28;20213;-80
2021/04/03 01:12:53;;;;;;;7.45;3.95;;;;;;;;;;5026525;28;20191;-81
2021/04/03 01:15:27;;;;;;;6.57;2.47;;;;;;;;;;5024353;28;20183;-80
2021/04/03 01:18:03;;;;;;;4.63;2.85;;;;;;;;;;5029978;28;20218;-80
2021/04/03 01:20:51;;;;;;;5.82;2.92;;;;;;;;;;5029181;28;20194;-81
2021/04/03 01:24:02;;;;;;;7.28;3.53;;;;;;;;;;5029243;28;20195;-81
2021/04/03 01:27:15;;;;;;;6.93;3.35;;;;;;;;;;5030368;28;20297;-80
2021/04/03 01:30:07;;;;;;;10.55;3.28;;;;;;;;;;5027081;28;20677;-80
2021/04/03 01:32:48;;;;;;;10.63;3.65;;;;;;;;;;5025934;28;20193;-80
2021/04/03 01:35:24;;;;;;;10.45;3.70;;;;;;;;;;5032619;28;20206;-80
2021/04/03 01:37:58;;;;;;;5.07;3.15;;;;;;;;;;5032529;28;20302;-80
2021/04/03 01:40:25;;;;;;;7.05;3.80;;;;;;;;;;5033700;28;20202;-81
2021/04/03 01:42:57;;;;;;;6.95;3.33;;;;;;;;;;5032883;28;20190;-80
2021/04/03 01:45:26;;;;;;;7.85;3.75;;;;;;;;;;5029786;28;20197;-81
2021/04/03 01:47:54;;;;;;;10.07;3.78;;;;;;;;;;5021953;28;20222;-81
2021/04/03 01:50:22;;;;;;;6.82;4.15;;;;;;;;;;5022380;28;20207;-81
2021/04/03 01:52:50;;;;;;;6.97;3.70;;;;;;;;;;5027264;28;20199;-81
2021/04/03 01:55:17;;;;;;;12.27;3.88;;;;;;;;;;5019397;28;20210;-81
2021/04/03 01:57:49;;;;;;;11.90;3.63;;;;;;;;;;5020786;28;20231;-81
2021/04/03 02:00:20;;;;;;;12.60;4.28;;;;;;;;;;5021970;28;20207;-81
2021/04/03 02:02:49;;;;;;;8.90;3.92;;;;;;;;;;5022705;28;20258;-81
2021/04/03 02:05:16;;;;;;;12.60;5.30;;;;;;;;;;5027284;28;20252;-81
2021/04/03 02:07:45;;;;;;;8.45;3.53;;;;;;;;;;5028033;28;20226;-80
2021/04/03 02:10:13;;;;;;;13.25;3.60;;;;;;;;;;5027838;28;20191;-81
2021/04/03 02:12:41;;;;;;;7.53;3.70;;;;;;;;;;5029407;28;20205;-81
2021/04/03 02:15:11;;;;;;;15.10;4.38;;;;;;;;;;5028525;28;20660;-80
2021/04/03 02:17:39;;;;;;;5.90;3.92;;;;;;;;;;5027882;28;20234;-79
2021/04/03 02:20:10;;;;;;;4.68;3.75;;;;;;;;;;5030016;28;20195;-80
2021/04/03 02:22:38;;;;;;;14.52;3.55;;;;;;;;;;5029734;28;20198;-80
2021/04/03 02:25:07;;;;;;;12.05;4.22;;;;;;;;;;5028649;28;20199;-81
2021/04/03 02:27:34;;;;;;;7.10;3.95;;;;;;;;;;5027970;28;20628;-80
2021/04/03 02:30:12;;;;;;;5.70;2.92;;;;;;;;;;5029807;28;20205;-80
2021/04/03 02:32:41;;;;;;;7.70;4.55;;;;;;;;;;5030834;28;20263;-80
2021/04/03 02:35:10;;;;;;;6.70;3.50;;;;;;;;;;5029839;28;20195;-81
2021/04/03 02:37:38;;;;;;;10.20;4.20;;;;;;;;;;5031473;28;20268;-80
2021/04/03 02:40:07;;;;;;;7.05;4.03;;;;;;;;;;5029019;28;20219;-80
2021/04/03 02:42:39;;;;;;;11.93;5.03;;;;;;;;;;5028875;28;20194;-80
2021/04/03 02:45:09;;;;;;;9.23;3.35;;;;;;;;;;5019982;28;20211;-82
2021/04/03 02:47:42;;;;;;;7.35;3.95;;;;;;;;;;5020889;28;20286;-81
2021/04/03 02:50:16;;;;;;;7.93;4.15;;;;;;;;;;5021430;28;20203;-81
2021/04/03 02:52:44;;;;;;;8.32;3.90;;;;;;;;;;5022449;28;20209;-81
2021/04/03 02:55:13;;;;;;;6.72;3.45;;;;;;;;;;5020915;28;20242;-80
2021/04/03 02:57:41;;;;;;;6.97;3.20;;;;;;;;;;5021127;28;20229;-81
2021/04/03 03:00:11;;;;;;;10.68;3.55;;;;;;;;;;5020753;28;20214;-81
2021/04/03 03:02:38;;;;;;;7.25;4.47;;;;;;;;;;5021311;28;20214;-81
2021/04/03 03:05:07;;;;;;;11.88;4.13;;;;;;;;;;5022132;28;20202;-80
2021/04/03 03:07:36;;;;;;;9.13;4.07;;;;;;;;;;5021766;28;20239;-81
2021/04/03 03:10:04;;;;;;;8.18;4.28;;;;;;;;;;5020591;28;20206;-81
2021/04/03 03:12:31;;;;;;;6.90;2.83;;;;;;;;;;5020412;28;20205;-81
2021/04/03 03:15:01;;;;;;;9.88;3.58;;;;;;;;;;5019450;28;20188;-81
2021/04/03 03:17:28;;;;;;;5.70;2.67;;;;;;;;;;5019415;28;20226;-81
2021/04/03 03:19:56;;;;;;;7.40;3.30;;;;;;;;;;5020217;28;20210;-81
2021/04/03 03:22:23;;;;;;;6.63;3.42;;;;;;;;;;5020009;28;20207;-81
2021/04/03 03:24:51;;;;;;;13.02;3.78;;;;;;;;;;5020258;28;20208;-81
2021/04/03 03:27:19;;;;;;;12.70;4.68;;;;;;;;;;5020329;28;20743;-81
2021/04/03 03:29:46;;;;;;;10.90;4.68;;;;;;;;;;5020280;28;20670;-80
2021/04/03 03:32:13;;;;;;;17.48;3.65;;;;;;;;;;5020827;28;20199;-81
2021/04/03 03:34:40;;;;;;;4.13;3.00;;;;;;;;;;5019954;28;20700;-81
2021/04/03 03:37:07;;;;;;;14.05;3.65;;;;;;;;;;5019881;28;20250;-81
2021/04/03 03:39:33;;;;;;;9.68;4.22;;;;;;;;;;5020655;28;20206;-81
2021/04/03 03:42:02;;;;;;;14.38;5.63;;;;;;;;;;5020675;28;20210;-81
2021/04/03 03:44:29;;;;;;;8.65;3.05;;;;;;;;;;5021135;28;20214;-81
2021/04/03 03:46:56;;;;;;;7.28;3.80;;;;;;;;;;5020207;28;20234;-81
2021/04/03 03:49:23;;;;;;;13.32;4.28;;;;;;;;;;5019244;28;20207;-81
2021/04/03 03:51:49;;;;;;;7.22;3.60;;;;;;;;;;5019852;28;20206;-81
2021/04/03 03:54:16;;;;;;;8.90;3.40;;;;;;;;;;5020502;28;20206;-81
2021/04/03 03:56:43;;;;;;;5.93;3.10;;;;;;;;;;5020887;28;20223;-80
2021/04/03 03:59:11;;;;;;;12.93;3.78;;;;;;;;;;5019935;28;20218;-80
2021/04/03 04:01:37;;;;;;;9.57;4.50;;;;;;;;;;5020834;28;20633;-81
2021/04/03 04:04:05;;;;;;;13.63;5.15;;;;;;;;;;5021391;28;20210;-80
2021/04/03 04:06:31;;;;;;;8.35;3.83;;;;;;;;;;5020200;28;20230;-80
2021/04/03 04:09:00;;;;;;;9.52;4.93;;;;;;;;;;5019828;28;20198;-81
2021/04/03 04:11:26;;;;;;;9.80;2.78;;;;;;;;;;5019704;28;20195;-80
2021/04/03 04:13:53;;;;;;;7.18;3.65;;;;;;;;;;5019224;28;20203;-80
2021/04/03 04:16:21;;;;;;;7.38;3.03;;;;;;;;;;5015789;28;20226;-80
2021/04/03 04:18:48;;;;;;;8.45;3.40;;;;;;;;;;5013097;28;20223;-80
2021/04/03 04:21:15;;;;;;;9.85;3.90;;;;;;;;;;5012901;28;20213;-80
2021/04/03 04:23:41;;;;;;;8.00;3.03;;;;;;;;;;5013273;28;20207;-80
2021/04/03 04:26:08;;;;;;;11.80;4.03;;;;;;;;;;5013130;28;20234;-80
2021/04/03 04:28:36;;;;;;;13.00;3.65;;;;;;;;;;5013413;28;20560;-80
2021/04/03 04:31:03;;;;;;;13.88;4.95;;;;;;;;;;5013680;28;20211;-81
2021/04/03 04:33:31;;;;;;;7.65;3.20;;;;;;;;;;5013365;28;20203;-80
2021/04/03 04:35:58;;;;;;;10.90;3.50;;;;;;;;;;5013067;28;20195;-80
2021/04/03 04:38:25;;;;;;;15.85;4.68;;;;;;;;;;5016621;28;20242;-80
2021/04/03 04:40:52;;;;;;;9.98;4.10;;;;;;;;;;5017004;28;20199;-80
2021/04/03 04:43:20;;;;;;;12.40;4.03;;;;;;;;;;5017377;28;20267;-80
2021/04/03 04:45:47;;;;;;;11.57;4.47;;;;;;;;;;5016860;28;20265;-80
2021/04/03 04:48:13;;;;;;;9.63;3.40;;;;;;;;;;5016796;28;20195;-80
2021/04/03 04:50:41;;;;;;;12.45;3.50;;;;;;;;;;5016848;28;20669;-80
2021/04/03 04:53:08;;;;;;;9.65;3.90;;;;;;;;;;5016611;28;20206;-80
2021/04/03 04:55:35;;;;;;;11.70;5.13;;;;;;;;;;5016677;28;20294;-80
2021/04/03 04:58:02;;;;;;;9.20;4.60;;;;;;;;;;5018939;28;20238;-81
2021/04/03 05:00:29;;;;;;;6.20;3.72;;;;;;;;;;5017413;28;20701;-81
2021/04/03 05:02:56;;;;;;;7.95;3.65;;;;;;;;;;5018378;28;20205;-80
2021/04/03 05:05:23;;;;;;;10.75;2.78;;;;;;;;;;5018030;28;20238;-80
2021/04/03 05:07:51;;;;;;;11.55;4.13;;;;;;;;;;5017980;28;20292;-81
2021/04/03 05:10:18;;;;;;;7.70;3.20;;;;;;;;;;5017510;28;20210;-80
2021/04/03 05:12:45;;;;;;;11.55;3.28;;;;;;;;;;5010695;28;20568;-80
2021/04/03 05:15:12;;;;;;;9.85;3.25;;;;;;;;;;5017959;28;20203;-81
2021/04/03 05:17:39;;;;;;;9.48;4.38;;;;;;;;;;5017571;28;20273;-80
2021/04/03 05:20:08;;;;;;;11.82;4.40;;;;;;;;;;5017541;28;20669;-80
2021/04/03 05:22:35;;;;;;;11.68;2.97;;;;;;;;;;5017683;28;20330;-80
2021/04/03 05:25:03;;;;;;;14.20;4.38;;;;;;;;;;5017005;28;20203;-80
2021/04/03 05:27:29;;;;;;;10.48;4.57;;;;;;;;;;5017667;28;20230;-80
2021/04/03 05:29:56;;;;;;;11.68;5.00;;;;;;;;;;5017973;28;20700;-80
2021/04/03 05:32:23;;;;;;;16.35;3.80;;;;;;;;;;5016549;28;20206;-80
2021/04/03 05:34:50;;;;;;;15.55;4.03;;;;;;;;;;5017344;28;20720;-80
2021/04/03 05:37:17;;;;;;;11.50;5.25;;;;;;;;;;5017058;28;20726;-80
2021/04/03 05:39:44;;;;;;;11.20;4.32;;;;;;;;;;5017093;28;20213;-80
2021/04/03 05:42:16;;;;;;;8.23;3.72;;;;;;;;;;5017508;28;20207;-81
2021/04/03 05:44:43;;;;;;;12.80;5.05;;;;;;;;;;5017462;28;20203;-80
2021/04/03 05:47:12;;;;;;;12.10;3.50;;;;;;;;;;5018139;28;20245;-81
2021/04/03 05:49:40;;;;;;;9.75;2.67;;;;;;;;;;5016780;28;20199;-80
2021/04/03 05:52:08;;;;;;;11.48;3.38;;;;;;;;;;5017274;28;20199;-80
2021/04/03 05:54:36;;;;;;;9.38;3.40;;;;;;;;;;5017436;28;20203;-80
2021/04/03 05:57:04;;;;;;;10.10;3.50;;;;;;;;;;5017221;28;20223;-80
2021/04/03 05:59:31;;;;;;;14.43;4.93;;;;;;;;;;5017429;28;20234;-81
2021/04/03 06:01:58;;;;;;;8.48;2.85;;;;;;;;;;5017098;28;20180;-81
2021/04/03 06:04:25;;;;;;;14.82;5.00;;;;;;;;;;5016854;28;20203;-81
2021/04/03 06:06:52;;;;;;;12.30;4.85;;;;;;;;;;5016752;28;20235;-81
2021/04/03 06:09:19;;;;;;;9.20;3.60;;;;;;;;;;5016222;28;20661;-81
2021/04/03 06:11:48;;;;;;;13.18;5.20;;;;;;;;;;5016632;28;20221;-81
2021/04/03 06:14:15;;;;;;;14.43;3.85;;;;;;;;;;5016723;28;20237;-80
2021/04/03 06:16:44;;;;;;;7.75;3.33;;;;;;;;;;5016291;28;20234;-81
2021/04/03 06:19:16;;;;;;;9.95;3.53;;;;;;;;;;5016180;28;20222;-82
2021/04/03 06:21:46;;;;;;;22.88;3.90;;;;;;;;;;5016749;28;20203;-81
2021/04/03 06:24:22;;;;;;;18.50;4.15;;;;;;;;;;5017122;28;20199;-80
2021/04/03 06:27:03;;;;;;;13.30;4.63;;;;;;;;;;5016676;28;20223;-81
2021/04/03 06:29:35;;;;;;;12.30;3.72;;;;;;;;;;5017004;28;20210;-80
2021/04/03 06:32:05;;;;;;;11.73;4.22;;;;;;;;;;5016592;28;20249;-81
2021/04/03 06:34:35;;;;;;;12.05;3.25;;;;;;;;;;5016011;28;20348;-81
2021/04/03 06:37:05;;;;;;;10.18;4.45;;;;;;;;;;5016449;28;20226;-81
2021/04/03 06:39:50;;;;;;;7.80;3.75;;;;;;;;;;5016131;28;20230;-81
2021/04/03 06:42:39;;;;;;;11.95;5.25;;;;;;;;;;5016243;28;20202;-81
2021/04/03 06:45:23;;;;;;;9.45;3.85;;;;;;;;;;5015978;28;20211;-81
2021/04/03 06:47:54;;;;;;;15.00;5.20;;;;;;;;;;5015792;28;20716;-80
2021/04/03 06:50:23;;;;;;;11.48;4.28;;;;;;;;;;5016439;28;20210;-82
2021/04/03 06:52:50;;;;;;;9.10;3.55;;;;;;;;;;5016797;28;20199;-81
2021/04/03 06:55:19;;;;;;;12.45;4.93;;;;;;;;;;5016425;28;20203;-81
2021/04/03 06:57:47;;;;;;;11.23;3.92;;;;;;;;;;5008823;28;20625;-81
2021/04/03 07:00:18;;;;;;;11.90;4.30;;;;;;;;;;5015253;28;20213;-82
2021/04/03 07:02:57;;;;;;;15.35;5.50;;;;;;;;;;5016637;28;20740;-81
2021/04/03 07:05:25;;;;;;;15.05;5.35;;;;;;;;;;5016771;28;20203;-81
2021/04/03 07:07:56;;;;;;;8.32;3.67;;;;;;;;;;5016129;28;20250;-82
2021/04/03 07:10:23;;;;;;;10.00;4.25;;;;;;;;;;5017267;28;20214;-82
2021/04/03 07:12:50;;;;;;;7.10;4.10;;;;;;;;;;5016565;28;20210;-81
2021/04/03 07:15:17;;;;;;;14.52;4.03;;;;;;;;;;5017424;28;20195;-81
2021/04/03 07:17:46;;;;;;;8.77;3.95;;;;;;;;;;5015498;28;20223;-81
2021/04/03 07:20:16;;;;;;;14.43;5.68;;;;;;;;;;5016860;28;20199;-81
2021/04/03 07:22:46;;;;;;;13.00;5.00;;;;;;;;;;5016588;28;20199;-80
2021/04/03 07:25:14;;;;;;;12.18;5.05;;;;;;;;;;5016533;28;20211;-80
2021/04/03 07:27:43;;;;;;;7.88;4.30;;;;;;;;;;5016414;28;20828;-80
2021/04/03 07:30:12;;;;;;;12.82;5.75;;;;;;;;;;5016088;28;20218;-81
2021/04/03 07:32:42;;;;;;;13.55;5.88;;;;;;;;;;5016167;28;20202;-81
2021/04/03 07:35:31;;;;;;;7.60;3.38;;;;;;;;;;5015707;28;20199;-81
2021/04/03 07:38:09;;;;;;;8.07;4.03;;;;;;;;;;5016375;28;20223;-81
2021/04/03 07:40:45;;;;;;;11.00;5.72;;;;;;;;;;5016635;28;20237;-81
2021/04/03 07:43:43;;;;;;;22.55;4.60;;;;;;;;;;5016147;28;20213;-82
2021/04/03 07:46:16;;;;;;;11.55;4.00;;;;;;;;;;4955784;29;20235;-81
2021/04/03 07:48:46;;;;;;;14.43;4.75;;;;;;;;;;5005501;28;20722;-81
2021/04/03 07:51:15;;;;;;;13.93;4.97;;;;;;;;;;5016986;28;20214;-81
2021/04/03 07:53:44;;;;;;;8.32;3.88;;;;;;;;;;5016685;28;20211;-81
2021/04/03 07:56:13;;;;;;;14.20;6.20;;;;;;;;;;5016282;28;20365;-81
2021/04/03 07:58:48;;;;;;;15.35;4.93;;;;;;;;;;5016642;28;20598;-82
2021/04/03 08:01:16;;;;;;;11.02;4.68;;;;;;;;;;5017019;28;20214;-81
2021/04/03 08:03:52;;;;;;;17.27;5.25;;;;;;;;;;5016773;28;20214;-81
2021/04/03 08:06:23;;;;;;;14.50;4.65;;;;;;;;;;5016333;28;20245;-81
2021/04/03 08:08:50;;;;;;;15.38;5.30;;;;;;;;;;5017089;28;20662;-82
2021/04/03 08:11:18;;;;;;;18.35;4.68;;;;;;;;;;5017090;28;20207;-81
2021/04/03 08:13:48;;;;;;;11.70;5.30;;;;;;;;;;5020868;28;20282;-81
2021/04/03 08:16:18;;;;;;;15.80;6.10;;;;;;;;;;5020891;28;20218;-81
2021/04/03 08:18:47;;;;;;;9.32;4.93;;;;;;;;;;5012769;28;20229;-81
2021/04/03 08:21:14;;;;;;;17.73;5.60;;;;;;;;;;5021877;28;20210;-81
2021/04/03 08:23:46;;;;;;;9.60;5.95;;;;;;;;;;5022069;28;20253;-82
2021/04/03 08:26:13;;;;;;;11.48;6.13;;;;;;;;;;5021751;28;20222;-81
2021/04/03 08:28:40;;;;;;;12.63;5.45;;;;;;;;;;5024851;28;20210;-81
2021/04/03 08:31:15;;;;;;;11.90;5.90;;;;;;;;;;5023524;28;20448;-81
2021/04/03 08:33:42;;;;;;;11.50;6.65;;;;;;;;;;5020654;28;20665;-82
2021/04/03 08:36:14;;;;;;;13.90;5.63;;;;;;;;;;5020227;28;20216;-81
2021/04/03 08:38:43;;;;;;;11.50;5.43;;;;;;;;;;5020206;28;20677;-82
2021/04/03 08:41:10;;;;;;;10.02;6.03;;;;;;;;;;5020972;28;20203;-81
2021/04/03 08:43:37;;;;;;;10.60;5.57;;;;;;;;;;5020403;28;20188;-81
2021/04/03 08:46:09;;;;;;;15.35;5.93;;;;;;;;;;5020606;28;20218;-82
2021/04/03 08:48:38;;;;;;;17.17;6.20;;;;;;;;;;5020558;28;20222;-81
2021/04/03 08:51:07;;;;;;;14.40;5.25;;;;;;;;;;5021014;28;20214;-81
2021/04/03 08:53:44;;;;;;;12.48;6.38;;;;;;;;;;5022713;28;20203;-80
2021/04/03 08:56:16;;;;;;;12.43;5.25;;;;;;;;;;5023336;28;20281;-80
2021/04/03 08:58:43;;;;;;;10.13;5.28;;;;;;;;;;5024998;28;20191;-80
2021/04/03 09:01:10;;;;;;;14.27;6.07;;;;;;;;;;5022934;28;20210;-81
2021/04/03 09:03:38;;;;;;;11.55;5.20;;;;;;;;;;5023504;28;20202;-80
2021/04/03 09:06:06;;;;;;;12.98;6.07;;;;;;;;;;5021521;28;20203;-80
2021/04/03 09:08:34;;;;;;;15.45;5.88;;;;;;;;;;5018402;28;20298;-80
2021/04/03 09:11:04;;;;;;;9.65;5.90;;;;;;;;;;5018119;28;20206;-80
2021/04/03 09:13:35;;;;;;;14.27;7.93;;;;;;;;;;5020277;28;20191;-80
2021/04/03 09:16:10;;;;;;;8.82;5.80;;;;;;;;;;5028337;28;20643;-80
2021/04/03 09:18:38;;;;;;;10.38;6.20;;;;;;;;;;5029513;28;20189;-80
2021/04/03 09:21:05;;;;;;;12.13;6.18;;;;;;;;;;5025786;28;20722;-80
2021/04/03 09:23:39;;;;;;;13.30;6.18;;;;;;;;;;5023526;28;20595;-80
2021/04/03 09:26:07;;;;;;;12.70;5.53;;;;;;;;;;5025473;28;20270;-80
2021/04/03 09:28:37;;;;;;;13.18;6.55;;;;;;;;;;5026908;28;20672;-80
2021/04/03 09:31:05;;;;;;;10.98;6.22;;;;;;;;;;5025360;28;20196;-80
2021/04/03 09:33:32;;;;;;;10.77;5.65;;;;;;;;;;5024025;28;20253;-80
2021/04/03 09:36:10;;;;;;;12.40;6.25;;;;;;;;;;5026481;28;20584;-80
2021/04/03 09:38:38;;;;;;;11.90;5.32;;;;;;;;;;5021925;28;20191;-80
2021/04/03 09:41:22;;;;;;;12.85;6.13;;;;;;;;;;5024700;28;20202;-81
2021/04/03 09:43:49;;;;;;;12.55;5.07;;;;;;;;;;5024726;28;20190;-81
2021/04/03 09:46:15;;;;;;;8.50;4.57;;;;;;;;;;5023376;28;20219;-80
2021/04/03 09:48:43;;;;;;;9.38;4.65;;;;;;;;;;5025313;28;20205;-80
2021/04/03 09:51:10;;;;;;;11.48;4.40;;;;;;;;;;5025664;28;20231;-81
2021/04/03 09:53:38;;;;;;;13.07;4.95;;;;;;;;;;5021791;28;20202;-80
2021/04/03 09:56:06;;;;;;;9.43;5.00;;;;;;;;;;5024582;28;20199;-81
2021/04/03 09:58:33;;;;;;;13.68;6.25;;;;;;;;;;5025759;28;20190;-81
2021/04/03 10:01:00;;;;;;;7.43;4.10;;;;;;;;;;5024280;28;20203;-80
2021/04/03 10:03:27;;;;;;;8.90;6.60;;;;;;;;;;5024114;28;20195;-81
2021/04/03 10:05:54;;;;;;;9.15;5.43;;;;;;;;;;5026252;28;20672;-80
2021/04/03 10:08:21;;;;;;;8.77;4.97;;;;;;;;;;5060636;23;20250;-86
2021/04/03 10:10:48;;;;;;;7.97;4.82;;;;;;;;;;5039357;28;20207;-84
2021/04/03 10:13:15;;;;;;;6.63;4.03;;;;;;;;;;5039569;28;20249;-87
2021/04/03 10:15:42;;;;;;;8.85;4.55;;;;;;;;;;5038866;28;20198;-87
2021/04/03 10:18:09;;;;;;;10.55;4.78;;;;;;;;;;5039354;28;20226;-88
2021/04/03 10:20:36;;;;;;;8.25;4.55;;;;;;;;;;5038947;28;20587;-88
2021/04/03 10:23:03;;;;;;;10.82;4.88;;;;;;;;;;5039833;28;20206;-87
2021/04/03 10:25:30;;;;;;;11.20;4.65;;;;;;;;;;5038684;28;20202;-87
2021/04/03 10:27:57;;;;;;;7.60;4.00;;;;;;;;;;5039536;28;20257;-87
2021/04/03 10:30:24;;;;;;;10.90;4.05;;;;;;;;;;5039601;28;20198;-87
2021/04/03 10:32:52;;;;;;;8.38;4.88;;;;;;;;;;5039503;28;20578;-87
2021/04/03 10:35:19;;;;;;;9.18;4.60;;;;;;;;;;5038527;28;20226;-88
2021/04/03 10:37:45;;;;;;;6.70;4.60;;;;;;;;;;5039617;28;20229;-88
2021/04/03 10:40:13;;;;;;;10.32;5.00;;;;;;;;;;5038319;28;20229;-87
2021/04/03 10:42:41;;;;;;;9.93;4.82;;;;;;;;;;5039522;28;20289;-87
2021/04/03 10:45:09;;;;;;;12.70;4.30;;;;;;;;;;5039292;28;20764;-86
2021/04/03 10:47:36;;;;;;;9.07;3.63;;;;;;;;;;5041196;28;20223;-87
2021/04/03 10:50:05;;;;;;;7.35;4.00;;;;;;;;;;5040078;28;20202;-88
2021/04/03 10:52:32;;;;;;;6.90;3.85;;;;;;;;;;5039587;28;20216;-88
2021/04/03 10:54:59;;;;;;;8.27;4.07;;;;;;;;;;5040149;28;20566;-87
2021/04/03 10:57:26;;;;;;;8.10;4.13;;;;;;;;;;5040265;28;20264;-86
2021/04/03 10:59:53;;;;;;;8.77;4.72;;;;;;;;;;5039791;28;20229;-88
2021/04/03 11:02:20;;;;;;;5.22;3.85;;;;;;;;;;5040049;28;20206;-89
2021/04/03 11:04:46;;;;;;;10.43;3.63;;;;;;;;;;5041038;28;20202;-87
2021/04/03 11:07:14;;;;;;;8.23;3.97;;;;;;;;;;5040333;28;20226;-88
2021/04/03 11:09:41;;;;;;;10.20;4.68;;;;;;;;;;5039816;28;20221;-88
2021/04/03 11:12:10;;;;;;;10.38;3.55;;;;;;;;;;5040185;28;20202;-87
2021/04/03 11:14:37;;;;;;;8.13;3.95;;;;;;;;;;5039125;28;20743;-88
2021/04/03 11:17:05;;;;;;;8.02;3.83;;;;;;;;;;5039165;28;20576;-86
2021/04/03 11:19:32;;;;;;;7.93;3.85;;;;;;;;;;5038682;28;20272;-86
2021/04/03 11:21:59;;;;;;;7.72;3.50;;;;;;;;;;5039134;28;20198;-85
2021/04/03 11:24:26;;;;;;;7.63;4.60;;;;;;;;;;5040138;28;20202;-87
2021/04/03 11:26:53;;;;;;;6.22;4.03;;;;;;;;;;5039714;28;20214;-87
2021/04/03 11:29:20;;;;;;;8.18;3.25;;;;;;;;;;5040242;28;20198;-87
2021/04/03 11:31:47;;;;;;;7.53;3.58;;;;;;;;;;5041873;28;20202;-88
2021/04/03 11:34:14;;;;;;;4.07;2.78;;;;;;;;;;5041514;28;20256;-88
2021/04/03 11:36:41;;;;;;;4.90;3.03;;;;;;;;;;5040143;28;20288;-87
2021/04/03 11:39:08;;;;;;;10.55;4.25;;;;;;;;;;5041399;28;20208;-88
2021/04/03 11:41:36;;;;;;;5.70;3.45;;;;;;;;;;5042208;28;20246;-86
2021/04/03 11:44:04;;;;;;;7.80;3.65;;;;;;;;;;5030869;28;20199;-86
2021/04/03 11:46:31;;;;;;;4.05;3.33;;;;;;;;;;5022329;28;20229;-86
2021/04/03 11:48:58;;;;;;;5.50;4.07;;;;;;;;;;5021808;28;20240;-87
2021/04/03 11:51:25;;;;;;;6.03;2.80;;;;;;;;;;5019685;28;20195;-88
2021/04/03 11:53:52;;;;;;;7.53;3.63;;;;;;;;;;5020784;28;20187;-86
2021/04/03 11:56:19;;;;;;;6.93;4.15;;;;;;;;;;5020905;28;20206;-84
2021/04/03 11:58:47;;;;;;;7.22;3.15;;;;;;;;;;5021742;28;20193;-87
2021/04/03 12:01:13;;;;;;;7.90;3.58;;;;;;;;;;5021538;28;20223;-86
2021/04/03 12:03:40;;;;;;;5.10;3.38;;;;;;;;;;5022021;28;20205;-88
2021/04/03 12:06:08;;;;;;;8.90;3.30;;;;;;;;;;5022320;28;20198;-87
2021/04/03 12:08:35;;;;;;;4.38;2.67;;;;;;;;;;5021194;28;20238;-87
2021/04/03 12:11:02;;;;;;;5.75;4.05;;;;;;;;;;5022535;28;20248;-87
2021/04/03 12:13:29;;;;;;;5.45;2.95;;;;;;;;;;5023843;28;20207;-88
2021/04/03 12:15:57;;;;;;;7.30;2.80;;;;;;;;;;5021250;28;20335;-87
2021/04/03 12:18:24;;;;;;;4.68;2.45;;;;;;;;;;5015111;28;20220;-86
2021/04/03 12:20:51;;;;;;;4.43;2.92;;;;;;;;;;5015762;28;20223;-87
2021/04/03 12:23:18;;;;;;;4.18;3.38;;;;;;;;;;5016829;28;20203;-87
2021/04/03 12:25:45;;;;;;;6.18;3.17;;;;;;;;;;5015982;28;20207;-87
2021/04/03 12:28:11;;;;;;;3.33;2.53;;;;;;;;;;5015469;28;20211;-87
2021/04/03 12:30:38;;;;;;;6.38;3.00;;;;;;;;;;5017241;28;20673;-86
2021/04/03 12:33:06;;;;;;;3.42;2.70;;;;;;;;;;5016087;28;20207;-87
2021/04/03 12:35:33;;;;;;;10.27;3.22;;;;;;;;;;5016572;28;20199;-88
2021/04/03 12:38:00;;;;;;;3.03;2.70;;;;;;;;;;5021237;28;20222;-86
2021/04/03 12:40:28;;;;;;;5.63;3.03;;;;;;;;;;5025406;28;20210;-85
2021/04/03 12:42:57;;;;;;;3.75;3.00;;;;;;;;;;5024895;28;20198;-87
2021/04/03 12:45:24;;;;;;;5.70;2.85;;;;;;;;;;5024536;28;20532;-87
2021/04/03 12:47:51;;;;;;;4.97;2.70;;;;;;;;;;5023458;28;20227;-87
2021/04/03 12:50:19;;;;;;;4.32;3.70;;;;;;;;;;5015271;28;20552;-84
2021/04/03 12:52:45;;;;;;;5.95;2.95;;;;;;;;;;5015667;28;20586;-87
2021/04/03 12:55:14;;;;;;;6.43;3.63;;;;;;;;;;5015817;28;20180;-88
2021/04/03 12:57:41;;;;;;;7.80;3.78;;;;;;;;;;5016625;28;20234;-86
2021/04/03 13:00:10;;;;;;;5.22;2.95;;;;;;;;;;5019467;28;20214;-88
2021/04/03 13:02:38;;;;;;;5.80;3.05;;;;;;;;;;5017296;28;20207;-86
2021/04/03 13:05:07;;;;;;;5.32;2.58;;;;;;;;;;5028152;28;20194;-86
2021/04/03 13:07:35;;;;;;;7.43;3.22;;;;;;;;;;5020931;28;20230;-86
2021/04/03 13:10:02;;;;;;;5.07;3.15;;;;;;;;;;5019490;28;20194;-85
2021/04/03 13:12:29;;;;;;;7.85;2.60;;;;;;;;;;5026669;28;20206;-85
2021/04/03 13:14:55;;;;;;;5.72;3.90;;;;;;;;;;5026245;28;20198;-87
2021/04/03 13:17:22;;;;;;;5.80;3.08;;;;;;;;;;5024951;28;20227;-87
2021/04/03 13:19:49;;;;;;;4.28;2.53;;;;;;;;;;5027100;28;20598;-85
2021/04/03 13:22:16;;;;;;;9.02;3.88;;;;;;;;;;5024728;28;20358;-87
2021/04/03 13:24:45;;;;;;;3.38;3.08;;;;;;;;;;5025433;28;20194;-87
2021/04/03 13:27:12;;;;;;;3.72;3.35;;;;;;;;;;5018705;28;20330;-85
2021/04/03 13:29:39;;;;;;;3.25;2.83;;;;;;;;;;5013284;28;20218;-86
2021/04/03 13:32:06;;;;;;;5.72;3.53;;;;;;;;;;5013446;28;20207;-85
2021/04/03 13:34:33;;;;;;;8.98;3.67;;;;;;;;;;5018475;28;20533;-86
2021/04/03 13:37:00;;;;;;;7.50;3.10;;;;;;;;;;5030680;28;20214;-86
2021/04/03 13:39:27;;;;;;;6.95;3.78;;;;;;;;;;5022946;28;20202;-87
2021/04/03 13:41:54;;;;;;;5.38;4.35;;;;;;;;;;5034495;28;20225;-86
2021/04/03 13:44:21;;;;;;;8.93;4.20;;;;;;;;;;5034713;28;20183;-87
2021/04/03 13:46:48;;;;;;;9.25;3.38;;;;;;;;;;5033610;28;20225;-84
2021/04/03 13:49:15;;;;;;;9.75;3.10;;;;;;;;;;5036218;28;20202;-87
2021/04/03 13:51:43;;;;;;;6.07;3.50;;;;;;;;;;5029326;28;20202;-87
2021/04/03 13:54:22;;;;;;;4.32;2.70;;;;;;;;;;5024152;28;20222;-88
2021/04/03 13:56:49;;;;;;;7.65;3.50;;;;;;;;;;5036220;28;20222;-85
2021/04/03 13:59:16;;;;;;;5.85;4.20;;;;;;;;;;5039421;28;20210;-86
2021/04/03 14:01:43;;;;;;;6.45;3.30;;;;;;;;;;5038959;28;20651;-85
2021/04/03 14:04:10;;;;;;;5.20;3.67;;;;;;;;;;5037624;28;20215;-87
2021/04/03 14:06:37;;;;;;;4.57;2.88;;;;;;;;;;5038138;28;20226;-85
2021/04/03 14:09:05;;;;;;;7.85;4.15;;;;;;;;;;5038151;28;20216;-86
2021/04/03 14:11:32;;;;;;;5.95;3.30;;;;;;;;;;5039627;28;20205;-87
2021/04/03 14:13:58;;;;;;;5.68;3.55;;;;;;;;;;5040101;28;20233;-85
2021/04/03 14:16:26;;;;;;;4.95;3.50;;;;;;;;;;5037356;28;20202;-86
2021/04/03 14:18:53;;;;;;;5.10;2.88;;;;;;;;;;5037435;28;20209;-85
2021/04/03 14:21:20;;;;;;;3.78;2.60;;;;;;;;;;5035940;28;20225;-85
2021/04/03 14:23:47;;;;;;;6.38;3.35;;;;;;;;;;5037864;28;20612;-85
2021/04/03 14:26:13;;;;;;;6.07;3.08;;;;;;;;;;5037382;28;20233;-86
2021/04/03 14:28:40;;;;;;;4.43;3.47;;;;;;;;;;5038546;28;20237;-87
2021/04/03 14:31:11;;;;;;;4.65;3.75;;;;;;;;;;5020564;28;20214;-85
2021/04/03 14:33:39;;;;;;;9.88;5.13;;;;;;;;;;5018284;28;20183;-87
2021/04/03 14:36:07;;;;;;;7.10;3.88;;;;;;;;;;5017529;28;20207;-86
2021/04/03 14:38:36;;;;;;;7.07;3.90;;;;;;;;;;5019160;28;20754;-85
2021/04/03 14:41:02;;;;;;;6.88;4.00;;;;;;;;;;5021448;28;20230;-86
2021/04/03 14:43:29;;;;;;;8.77;4.75;;;;;;;;;;5024353;28;20199;-85
2021/04/03 14:45:56;;;;;;;5.60;3.78;;;;;;;;;;5024003;28;20203;-86
2021/04/03 14:48:23;;;;;;;5.65;3.53;;;;;;;;;;5023925;28;20230;-84